sensor_id;sensor_type;location;lat;lon;timestamp;P1;durP1;ratioP1;P2;durP2;ratioP2
18364;SDS011;9309;52.126;11.616;2022-08-19T00:00:24;28.17;;;21.10;;
18364;SDS011;9309;52.126;11.616;2022-08-19T00:02:52;30.83;;;21.55;;
18364;SDS011;9309;52.126;11.616;2022-08-19T00:05:20;32.40;;;22.00;;
18364;SDS011;9309;52.126;11.616;2022-08-19T00:07:48;29.30;;;21.85;;
18364;SDS011;9309;52.126;11.616;2022-08-19T00:10:16;33.25;;;22.85;;
18364;SDS011;9309;52.126;11.616;2022-08-19T00:12:45;31.95;;;22.85;;
18364;SDS011;9309;52.126;11.616;2022-08-19T00:15:14;33.05;;;24.40;;
18364;SDS011;9309;52.126;11.616;2022-08-19T00:17:43;34.22;;;24.38;;
18364;SDS011;9309;52.126;11.616;2022-08-19T00:20:11;40.03;;;24.58;;
18364;SDS011;9309;52.126;11.616;2022-08-19T00:22:41;33.67;;;25.42;;
18364;SDS011;9309;52.126;11.616;2022-08-19T00:25:08;37.28;;;26.95;;
18364;SDS011;9309;52.126;11.616;2022-08-19T00:27:35;37.80;;;26.95;;
18364;SDS011;9309;52.126;11.616;2022-08-19T00:30:04;39.38;;;27.58;;
18364;SDS011;9309;52.126;11.616;2022-08-19T00:32:32;38.92;;;27.70;;
18364;SDS011;9309;52.126;11.616;2022-08-19T00:34:59;39.75;;;28.08;;
18364;SDS011;9309;52.126;11.616;2022-08-19T00:37:26;36.70;;;27.83;;
18364;SDS011;9309;52.126;11.616;2022-08-19T00:39:53;44.70;;;29.38;;
18364;SDS011;9309;52.126;11.616;2022-08-19T00:42:22;38.63;;;28.52;;
18364;SDS011;9309;52.126;11.616;2022-08-19T00:44:48;44.67;;;29.00;;
18364;SDS011;9309;52.126;11.616;2022-08-19T00:47:17;42.80;;;29.73;;
18364;SDS011;9309;52.126;11.616;2022-08-19T00:49:45;52.60;;;30.45;;
18364;SDS011;9309;52.126;11.616;2022-08-19T00:52:16;42.70;;;30.02;;
18364;SDS011;9309;52.126;11.616;2022-08-19T00:54:46;41.88;;;29.73;;
18364;SDS011;9309;52.126;11.616;2022-08-19T00:57:14;47.85;;;31.80;;
18364;SDS011;9309;52.126;11.616;2022-08-19T00:59:44;49.28;;;33.03;;
18364;SDS011;9309;52.126;11.616;2022-08-19T01:02:13;46.20;;;32.17;;
18364;SDS011;9309;52.126;11.616;2022-08-19T01:04:42;47.92;;;32.63;;
18364;SDS011;9309;52.126;11.616;2022-08-19T01:07:08;46.17;;;31.13;;
18364;SDS011;9309;52.126;11.616;2022-08-19T01:09:35;50.35;;;31.27;;
18364;SDS011;9309;52.126;11.616;2022-08-19T01:12:02;46.70;;;31.00;;
18364;SDS011;9309;52.126;11.616;2022-08-19T01:14:29;44.60;;;31.50;;
18364;SDS011;9309;52.126;11.616;2022-08-19T01:16:56;49.33;;;31.42;;
18364;SDS011;9309;52.126;11.616;2022-08-19T01:19:26;49.95;;;30.80;;
18364;SDS011;9309;52.126;11.616;2022-08-19T01:22:01;45.67;;;31.90;;
18364;SDS011;9309;52.126;11.616;2022-08-19T01:24:32;47.50;;;31.37;;
18364;SDS011;9309;52.126;11.616;2022-08-19T01:26:59;49.40;;;30.60;;
18364;SDS011;9309;52.126;11.616;2022-08-19T01:29:29;46.30;;;31.60;;
18364;SDS011;9309;52.126;11.616;2022-08-19T01:31:56;44.40;;;30.98;;
18364;SDS011;9309;52.126;11.616;2022-08-19T01:34:23;47.80;;;30.77;;
18364;SDS011;9309;52.126;11.616;2022-08-19T01:36:50;45.25;;;31.45;;
18364;SDS011;9309;52.126;11.616;2022-08-19T01:39:19;43.38;;;30.85;;
18364;SDS011;9309;52.126;11.616;2022-08-19T01:41:49;43.53;;;31.17;;
18364;SDS011;9309;52.126;11.616;2022-08-19T01:44:17;45.25;;;31.17;;
18364;SDS011;9309;52.126;11.616;2022-08-19T01:46:47;46.57;;;31.33;;
18364;SDS011;9309;52.126;11.616;2022-08-19T01:49:14;44.30;;;30.00;;
18364;SDS011;9309;52.126;11.616;2022-08-19T01:51:42;45.37;;;29.87;;
18364;SDS011;9309;52.126;11.616;2022-08-19T01:54:09;51.17;;;30.63;;
18364;SDS011;9309;52.126;11.616;2022-08-19T01:56:37;43.00;;;30.93;;
18364;SDS011;9309;52.126;11.616;2022-08-19T01:59:09;50.87;;;30.80;;
18364;SDS011;9309;52.126;11.616;2022-08-19T02:01:38;46.53;;;31.53;;
18364;SDS011;9309;52.126;11.616;2022-08-19T02:04:06;45.58;;;29.85;;
18364;SDS011;9309;52.126;11.616;2022-08-19T02:06:33;48.57;;;30.80;;
18364;SDS011;9309;52.126;11.616;2022-08-19T02:09:00;42.78;;;30.55;;
18364;SDS011;9309;52.126;11.616;2022-08-19T02:11:28;42.38;;;28.52;;
18364;SDS011;9309;52.126;11.616;2022-08-19T02:13:58;41.13;;;28.60;;
18364;SDS011;9309;52.126;11.616;2022-08-19T02:16:28;41.95;;;29.25;;
18364;SDS011;9309;52.126;11.616;2022-08-19T02:18:56;46.03;;;30.35;;
18364;SDS011;9309;52.126;11.616;2022-08-19T02:21:25;41.78;;;29.80;;
18364;SDS011;9309;52.126;11.616;2022-08-19T02:23:53;46.03;;;30.10;;
18364;SDS011;9309;52.126;11.616;2022-08-19T02:26:20;41.33;;;29.73;;
18364;SDS011;9309;52.126;11.616;2022-08-19T02:28:47;43.10;;;28.65;;
18364;SDS011;9309;52.126;11.616;2022-08-19T02:31:15;40.43;;;28.93;;
18364;SDS011;9309;52.126;11.616;2022-08-19T02:33:45;38.22;;;28.25;;
18364;SDS011;9309;52.126;11.616;2022-08-19T02:36:13;39.38;;;28.77;;
18364;SDS011;9309;52.126;11.616;2022-08-19T02:38:41;42.25;;;29.60;;
18364;SDS011;9309;52.126;11.616;2022-08-19T02:41:11;43.40;;;29.92;;
18364;SDS011;9309;52.126;11.616;2022-08-19T02:43:40;43.95;;;29.98;;
18364;SDS011;9309;52.126;11.616;2022-08-19T02:46:11;42.40;;;28.73;;
18364;SDS011;9309;52.126;11.616;2022-08-19T02:48:38;44.75;;;28.02;;
18364;SDS011;9309;52.126;11.616;2022-08-19T02:51:06;34.57;;;27.60;;
18364;SDS011;9309;52.126;11.616;2022-08-19T02:53:33;42.00;;;27.87;;
18364;SDS011;9309;52.126;11.616;2022-08-19T02:56:00;44.97;;;28.87;;
18364;SDS011;9309;52.126;11.616;2022-08-19T02:58:27;45.55;;;28.70;;
18364;SDS011;9309;52.126;11.616;2022-08-19T03:00:54;40.27;;;28.00;;
18364;SDS011;9309;52.126;11.616;2022-08-19T03:03:22;47.15;;;29.80;;
18364;SDS011;9309;52.126;11.616;2022-08-19T03:05:49;42.70;;;29.73;;
18364;SDS011;9309;52.126;11.616;2022-08-19T03:08:17;41.72;;;29.13;;
18364;SDS011;9309;52.126;11.616;2022-08-19T03:10:44;45.63;;;29.92;;
18364;SDS011;9309;52.126;11.616;2022-08-19T03:13:12;47.97;;;30.35;;
18364;SDS011;9309;52.126;11.616;2022-08-19T03:15:41;45.50;;;30.53;;
18364;SDS011;9309;52.126;11.616;2022-08-19T03:18:09;44.13;;;30.03;;
18364;SDS011;9309;52.126;11.616;2022-08-19T03:20:40;51.37;;;30.10;;
18364;SDS011;9309;52.126;11.616;2022-08-19T03:23:07;45.77;;;30.17;;
18364;SDS011;9309;52.126;11.616;2022-08-19T03:25:37;52.87;;;32.60;;
18364;SDS011;9309;52.126;11.616;2022-08-19T03:28:05;51.57;;;33.73;;
18364;SDS011;9309;52.126;11.616;2022-08-19T03:30:32;53.93;;;31.90;;
18364;SDS011;9309;52.126;11.616;2022-08-19T03:32:59;55.53;;;32.63;;
18364;SDS011;9309;52.126;11.616;2022-08-19T03:35:26;53.87;;;33.53;;
18364;SDS011;9309;52.126;11.616;2022-08-19T03:37:53;51.47;;;33.03;;
18364;SDS011;9309;52.126;11.616;2022-08-19T03:40:21;54.77;;;33.37;;
18364;SDS011;9309;52.126;11.616;2022-08-19T03:42:49;49.53;;;32.73;;
18364;SDS011;9309;52.126;11.616;2022-08-19T03:45:16;60.37;;;34.00;;
18364;SDS011;9309;52.126;11.616;2022-08-19T03:47:43;57.23;;;33.33;;
18364;SDS011;9309;52.126;11.616;2022-08-19T03:50:10;54.75;;;32.60;;
18364;SDS011;9309;52.126;11.616;2022-08-19T03:52:37;57.67;;;32.90;;
18364;SDS011;9309;52.126;11.616;2022-08-19T03:55:04;54.10;;;31.90;;
18364;SDS011;9309;52.126;11.616;2022-08-19T03:57:32;55.97;;;31.90;;
18364;SDS011;9309;52.126;11.616;2022-08-19T04:00:02;53.60;;;31.43;;
18364;SDS011;9309;52.126;11.616;2022-08-19T04:02:31;61.93;;;32.33;;
18364;SDS011;9309;52.126;11.616;2022-08-19T04:04:58;52.77;;;31.57;;
18364;SDS011;9309;52.126;11.616;2022-08-19T04:07:25;53.50;;;31.37;;
18364;SDS011;9309;52.126;11.616;2022-08-19T04:09:51;50.33;;;31.33;;
18364;SDS011;9309;52.126;11.616;2022-08-19T04:12:18;50.77;;;29.73;;
18364;SDS011;9309;52.126;11.616;2022-08-19T04:14:46;48.80;;;30.73;;
18364;SDS011;9309;52.126;11.616;2022-08-19T04:17:14;57.07;;;30.67;;
18364;SDS011;9309;52.126;11.616;2022-08-19T04:19:40;46.70;;;28.53;;
18364;SDS011;9309;52.126;11.616;2022-08-19T04:22:07;57.47;;;30.40;;
18364;SDS011;9309;52.126;11.616;2022-08-19T04:24:36;52.57;;;29.60;;
18364;SDS011;9309;52.126;11.616;2022-08-19T04:27:03;46.73;;;28.13;;
18364;SDS011;9309;52.126;11.616;2022-08-19T04:29:31;52.23;;;29.23;;
18364;SDS011;9309;52.126;11.616;2022-08-19T04:31:58;48.47;;;28.33;;
18364;SDS011;9309;52.126;11.616;2022-08-19T04:34:27;51.30;;;28.73;;
18364;SDS011;9309;52.126;11.616;2022-08-19T04:36:55;43.80;;;27.53;;
18364;SDS011;9309;52.126;11.616;2022-08-19T04:39:24;50.97;;;27.57;;
18364;SDS011;9309;52.126;11.616;2022-08-19T04:42:13;49.67;;;27.10;;
18364;SDS011;9309;52.126;11.616;2022-08-19T04:44:57;48.43;;;26.93;;
18364;SDS011;9309;52.126;11.616;2022-08-19T04:47:24;47.00;;;27.67;;
18364;SDS011;9309;52.126;11.616;2022-08-19T04:49:52;43.93;;;25.53;;
18364;SDS011;9309;52.126;11.616;2022-08-19T04:52:19;39.43;;;26.43;;
18364;SDS011;9309;52.126;11.616;2022-08-19T04:54:46;46.57;;;27.87;;
18364;SDS011;9309;52.126;11.616;2022-08-19T04:57:13;44.97;;;26.57;;
18364;SDS011;9309;52.126;11.616;2022-08-19T04:59:40;46.13;;;28.00;;
18364;SDS011;9309;52.126;11.616;2022-08-19T05:02:07;44.43;;;27.67;;
18364;SDS011;9309;52.126;11.616;2022-08-19T05:04:35;43.40;;;27.00;;
18364;SDS011;9309;52.126;11.616;2022-08-19T05:07:05;44.97;;;28.27;;
18364;SDS011;9309;52.126;11.616;2022-08-19T05:09:32;49.17;;;26.57;;
18364;SDS011;9309;52.126;11.616;2022-08-19T05:12:00;40.27;;;25.90;;
18364;SDS011;9309;52.126;11.616;2022-08-19T05:14:27;47.03;;;26.57;;
18364;SDS011;9309;52.126;11.616;2022-08-19T05:16:54;45.00;;;25.97;;
18364;SDS011;9309;52.126;11.616;2022-08-19T05:19:21;40.93;;;25.80;;
18364;SDS011;9309;52.126;11.616;2022-08-19T05:22:06;44.23;;;24.13;;
18364;SDS011;9309;52.126;11.616;2022-08-19T05:24:50;44.83;;;23.73;;
18364;SDS011;9309;52.126;11.616;2022-08-19T05:27:17;39.17;;;23.77;;
18364;SDS011;9309;52.126;11.616;2022-08-19T05:29:44;34.13;;;22.50;;
18364;SDS011;9309;52.126;11.616;2022-08-19T05:32:11;37.67;;;22.73;;
18364;SDS011;9309;52.126;11.616;2022-08-19T05:34:37;36.63;;;22.87;;
18364;SDS011;9309;52.126;11.616;2022-08-19T05:37:04;45.27;;;24.00;;
18364;SDS011;9309;52.126;11.616;2022-08-19T05:39:34;34.40;;;22.63;;
18364;SDS011;9309;52.126;11.616;2022-08-19T05:42:03;38.13;;;22.97;;
18364;SDS011;9309;52.126;11.616;2022-08-19T05:44:33;38.57;;;22.23;;
18364;SDS011;9309;52.126;11.616;2022-08-19T05:47:02;36.47;;;23.00;;
18364;SDS011;9309;52.126;11.616;2022-08-19T05:49:31;34.43;;;22.33;;
18364;SDS011;9309;52.126;11.616;2022-08-19T05:51:59;40.43;;;22.00;;
18364;SDS011;9309;52.126;11.616;2022-08-19T05:54:30;37.73;;;22.20;;
18364;SDS011;9309;52.126;11.616;2022-08-19T05:56:58;35.40;;;22.27;;
18364;SDS011;9309;52.126;11.616;2022-08-19T05:59:26;33.27;;;21.70;;
18364;SDS011;9309;52.126;11.616;2022-08-19T06:01:53;35.83;;;21.40;;
18364;SDS011;9309;52.126;11.616;2022-08-19T06:04:21;34.87;;;21.17;;
18364;SDS011;9309;52.126;11.616;2022-08-19T06:06:50;34.77;;;21.30;;
18364;SDS011;9309;52.126;11.616;2022-08-19T06:09:19;32.30;;;21.30;;
18364;SDS011;9309;52.126;11.616;2022-08-19T06:11:48;37.07;;;22.70;;
18364;SDS011;9309;52.126;11.616;2022-08-19T06:14:19;31.50;;;21.77;;
18364;SDS011;9309;52.126;11.616;2022-08-19T06:16:47;37.87;;;22.57;;
18364;SDS011;9309;52.126;11.616;2022-08-19T06:19:16;35.67;;;21.90;;
18364;SDS011;9309;52.126;11.616;2022-08-19T06:21:44;41.80;;;22.70;;
18364;SDS011;9309;52.126;11.616;2022-08-19T06:24:14;36.37;;;21.60;;
18364;SDS011;9309;52.126;11.616;2022-08-19T06:26:43;35.67;;;22.17;;
18364;SDS011;9309;52.126;11.616;2022-08-19T06:29:14;35.43;;;22.70;;
18364;SDS011;9309;52.126;11.616;2022-08-19T06:31:42;32.23;;;21.27;;
18364;SDS011;9309;52.126;11.616;2022-08-19T06:34:10;36.47;;;22.83;;
18364;SDS011;9309;52.126;11.616;2022-08-19T06:36:39;42.57;;;22.07;;
18364;SDS011;9309;52.126;11.616;2022-08-19T06:39:10;35.10;;;22.83;;
18364;SDS011;9309;52.126;11.616;2022-08-19T06:41:39;37.90;;;22.73;;
18364;SDS011;9309;52.126;11.616;2022-08-19T06:44:16;44.57;;;24.17;;
18364;SDS011;9309;52.126;11.616;2022-08-19T06:46:44;42.17;;;24.47;;
18364;SDS011;9309;52.126;11.616;2022-08-19T06:49:11;39.80;;;23.67;;
18364;SDS011;9309;52.126;11.616;2022-08-19T06:51:39;49.37;;;25.57;;
18364;SDS011;9309;52.126;11.616;2022-08-19T06:54:07;43.23;;;26.10;;
18364;SDS011;9309;52.126;11.616;2022-08-19T06:56:34;50.40;;;27.47;;
18364;SDS011;9309;52.126;11.616;2022-08-19T06:59:02;45.77;;;29.13;;
18364;SDS011;9309;52.126;11.616;2022-08-19T07:01:31;57.20;;;30.00;;
18364;SDS011;9309;52.126;11.616;2022-08-19T07:04:03;55.73;;;30.57;;
18364;SDS011;9309;52.126;11.616;2022-08-19T07:06:31;62.47;;;32.07;;
18364;SDS011;9309;52.126;11.616;2022-08-19T07:08:58;50.43;;;29.60;;
18364;SDS011;9309;52.126;11.616;2022-08-19T07:11:25;63.83;;;32.87;;
18364;SDS011;9309;52.126;11.616;2022-08-19T07:13:52;56.03;;;33.20;;
18364;SDS011;9309;52.126;11.616;2022-08-19T07:16:19;59.80;;;32.00;;
18364;SDS011;9309;52.126;11.616;2022-08-19T07:18:48;52.30;;;32.87;;
18364;SDS011;9309;52.126;11.616;2022-08-19T07:21:16;63.97;;;32.70;;
18364;SDS011;9309;52.126;11.616;2022-08-19T07:23:44;61.13;;;33.17;;
18364;SDS011;9309;52.126;11.616;2022-08-19T07:26:12;65.40;;;33.57;;
18364;SDS011;9309;52.126;11.616;2022-08-19T07:28:41;62.73;;;34.93;;
18364;SDS011;9309;52.126;11.616;2022-08-19T07:31:09;60.47;;;35.70;;
18364;SDS011;9309;52.126;11.616;2022-08-19T07:33:38;63.97;;;34.53;;
18364;SDS011;9309;52.126;11.616;2022-08-19T07:36:07;62.57;;;33.43;;
18364;SDS011;9309;52.126;11.616;2022-08-19T07:38:37;57.83;;;34.57;;
18364;SDS011;9309;52.126;11.616;2022-08-19T07:41:05;58.80;;;34.63;;
18364;SDS011;9309;52.126;11.616;2022-08-19T07:43:32;60.60;;;36.33;;
18364;SDS011;9309;52.126;11.616;2022-08-19T07:45:59;62.67;;;37.07;;
18364;SDS011;9309;52.126;11.616;2022-08-19T07:48:27;61.90;;;36.83;;
18364;SDS011;9309;52.126;11.616;2022-08-19T07:50:54;63.07;;;36.33;;
18364;SDS011;9309;52.126;11.616;2022-08-19T07:53:25;64.97;;;37.23;;
18364;SDS011;9309;52.126;11.616;2022-08-19T07:55:52;62.67;;;36.00;;
18364;SDS011;9309;52.126;11.616;2022-08-19T07:58:20;55.07;;;34.83;;
18364;SDS011;9309;52.126;11.616;2022-08-19T08:00:48;60.93;;;35.07;;
18364;SDS011;9309;52.126;11.616;2022-08-19T08:03:18;60.30;;;35.00;;
18364;SDS011;9309;52.126;11.616;2022-08-19T08:06:06;59.10;;;34.23;;
18364;SDS011;9309;52.126;11.616;2022-08-19T08:08:52;56.13;;;32.53;;
18364;SDS011;9309;52.126;11.616;2022-08-19T08:11:43;61.77;;;33.43;;
18364;SDS011;9309;52.126;11.616;2022-08-19T08:14:14;53.73;;;31.57;;
18364;SDS011;9309;52.126;11.616;2022-08-19T08:16:42;57.40;;;32.30;;
18364;SDS011;9309;52.126;11.616;2022-08-19T08:19:10;56.40;;;32.20;;
18364;SDS011;9309;52.126;11.616;2022-08-19T08:21:38;55.60;;;30.43;;
18364;SDS011;9309;52.126;11.616;2022-08-19T08:24:06;53.93;;;29.67;;
18364;SDS011;9309;52.126;11.616;2022-08-19T08:26:33;58.53;;;33.20;;
18364;SDS011;9309;52.126;11.616;2022-08-19T08:29:00;59.80;;;33.67;;
18364;SDS011;9309;52.126;11.616;2022-08-19T08:31:27;57.87;;;30.13;;
18364;SDS011;9309;52.126;11.616;2022-08-19T08:33:53;52.70;;;30.77;;
18364;SDS011;9309;52.126;11.616;2022-08-19T08:36:21;52.70;;;30.53;;
18364;SDS011;9309;52.126;11.616;2022-08-19T08:38:52;56.87;;;30.37;;
18364;SDS011;9309;52.126;11.616;2022-08-19T08:41:23;57.43;;;31.13;;
18364;SDS011;9309;52.126;11.616;2022-08-19T08:43:55;51.40;;;29.07;;
18364;SDS011;9309;52.126;11.616;2022-08-19T08:46:24;50.90;;;27.83;;
18364;SDS011;9309;52.126;11.616;2022-08-19T08:48:58;48.27;;;27.13;;
18364;SDS011;9309;52.126;11.616;2022-08-19T08:51:32;43.70;;;25.40;;
18364;SDS011;9309;52.126;11.616;2022-08-19T08:54:02;46.10;;;24.80;;
18364;SDS011;9309;52.126;11.616;2022-08-19T08:56:33;48.10;;;24.83;;
18364;SDS011;9309;52.126;11.616;2022-08-19T08:59:03;41.60;;;23.73;;
18364;SDS011;9309;52.126;11.616;2022-08-19T09:01:35;40.13;;;23.77;;
18364;SDS011;9309;52.126;11.616;2022-08-19T09:04:02;41.70;;;22.53;;
18364;SDS011;9309;52.126;11.616;2022-08-19T09:06:32;39.47;;;22.80;;
18364;SDS011;9309;52.126;11.616;2022-08-19T09:09:05;41.03;;;22.93;;
18364;SDS011;9309;52.126;11.616;2022-08-19T09:11:54;43.23;;;22.77;;
18364;SDS011;9309;52.126;11.616;2022-08-19T09:14:32;40.23;;;20.43;;
18364;SDS011;9309;52.126;11.616;2022-08-19T09:17:03;33.77;;;20.43;;
18364;SDS011;9309;52.126;11.616;2022-08-19T09:19:33;34.10;;;21.10;;
18364;SDS011;9309;52.126;11.616;2022-08-19T09:22:01;34.53;;;20.80;;
18364;SDS011;9309;52.126;11.616;2022-08-19T09:24:28;34.60;;;19.77;;
18364;SDS011;9309;52.126;11.616;2022-08-19T09:26:56;31.10;;;20.20;;
18364;SDS011;9309;52.126;11.616;2022-08-19T09:29:23;36.17;;;20.70;;
18364;SDS011;9309;52.126;11.616;2022-08-19T09:31:50;36.57;;;21.17;;
18364;SDS011;9309;52.126;11.616;2022-08-19T09:34:17;38.97;;;20.57;;
18364;SDS011;9309;52.126;11.616;2022-08-19T09:36:44;38.13;;;20.40;;
18364;SDS011;9309;52.126;11.616;2022-08-19T09:39:11;36.80;;;20.73;;
18364;SDS011;9309;52.126;11.616;2022-08-19T09:41:38;31.03;;;20.57;;
18364;SDS011;9309;52.126;11.616;2022-08-19T09:44:06;35.20;;;20.90;;
18364;SDS011;9309;52.126;11.616;2022-08-19T09:46:33;34.07;;;19.53;;
18364;SDS011;9309;52.126;11.616;2022-08-19T09:49:01;33.13;;;20.33;;
18364;SDS011;9309;52.126;11.616;2022-08-19T09:51:31;31.48;;;19.88;;
18364;SDS011;9309;52.126;11.616;2022-08-19T09:53:58;34.70;;;20.50;;
18364;SDS011;9309;52.126;11.616;2022-08-19T09:56:27;34.07;;;19.43;;
18364;SDS011;9309;52.126;11.616;2022-08-19T09:58:55;33.17;;;19.40;;
18364;SDS011;9309;52.126;11.616;2022-08-19T10:01:25;31.77;;;19.17;;
18364;SDS011;9309;52.126;11.616;2022-08-19T10:03:56;31.80;;;17.77;;
18364;SDS011;9309;52.126;11.616;2022-08-19T10:06:25;29.55;;;18.95;;
18364;SDS011;9309;52.126;11.616;2022-08-19T10:08:54;30.88;;;18.77;;
18364;SDS011;9309;52.126;11.616;2022-08-19T10:11:22;26.52;;;18.23;;
18364;SDS011;9309;52.126;11.616;2022-08-19T10:13:49;30.40;;;18.03;;
18364;SDS011;9309;52.126;11.616;2022-08-19T10:16:16;26.00;;;17.63;;
18364;SDS011;9309;52.126;11.616;2022-08-19T10:18:48;28.23;;;17.65;;
18364;SDS011;9309;52.126;11.616;2022-08-19T10:21:17;27.45;;;17.30;;
18364;SDS011;9309;52.126;11.616;2022-08-19T10:23:46;25.63;;;16.45;;
18364;SDS011;9309;52.126;11.616;2022-08-19T10:26:16;28.02;;;17.42;;
18364;SDS011;9309;52.126;11.616;2022-08-19T10:28:45;31.48;;;17.73;;
18364;SDS011;9309;52.126;11.616;2022-08-19T10:31:12;29.67;;;17.52;;
18364;SDS011;9309;52.126;11.616;2022-08-19T10:33:42;26.73;;;17.48;;
18364;SDS011;9309;52.126;11.616;2022-08-19T10:36:12;25.63;;;16.58;;
18364;SDS011;9309;52.126;11.616;2022-08-19T10:38:40;29.80;;;17.20;;
18364;SDS011;9309;52.126;11.616;2022-08-19T10:41:09;32.10;;;18.60;;
18364;SDS011;9309;52.126;11.616;2022-08-19T10:43:37;29.52;;;17.85;;
18364;SDS011;9309;52.126;11.616;2022-08-19T10:46:05;26.77;;;16.90;;
18364;SDS011;9309;52.126;11.616;2022-08-19T10:48:32;23.48;;;15.35;;
18364;SDS011;9309;52.126;11.616;2022-08-19T10:50:59;22.85;;;15.23;;
18364;SDS011;9309;52.126;11.616;2022-08-19T10:53:45;22.65;;;15.00;;
18364;SDS011;9309;52.126;11.616;2022-08-19T10:56:12;24.05;;;15.95;;
18364;SDS011;9309;52.126;11.616;2022-08-19T10:58:56;23.63;;;15.50;;
18364;SDS011;9309;52.126;11.616;2022-08-19T11:01:23;23.40;;;15.23;;
18364;SDS011;9309;52.126;11.616;2022-08-19T11:03:51;21.92;;;14.98;;
18364;SDS011;9309;52.126;11.616;2022-08-19T11:06:18;21.25;;;14.07;;
18364;SDS011;9309;52.126;11.616;2022-08-19T11:08:46;25.63;;;15.50;;
18364;SDS011;9309;52.126;11.616;2022-08-19T11:11:13;21.98;;;14.68;;
18364;SDS011;9309;52.126;11.616;2022-08-19T11:13:40;20.70;;;14.52;;
18364;SDS011;9309;52.126;11.616;2022-08-19T11:16:10;22.55;;;14.10;;
18364;SDS011;9309;52.126;11.616;2022-08-19T11:18:40;19.23;;;13.88;;
18364;SDS011;9309;52.126;11.616;2022-08-19T11:21:09;21.45;;;14.20;;
18364;SDS011;9309;52.126;11.616;2022-08-19T11:23:37;22.15;;;14.50;;
18364;SDS011;9309;52.126;11.616;2022-08-19T11:26:06;25.00;;;15.63;;
18364;SDS011;9309;52.126;11.616;2022-08-19T11:28:33;20.45;;;14.80;;
18364;SDS011;9309;52.126;11.616;2022-08-19T11:31:00;23.02;;;14.50;;
18364;SDS011;9309;52.126;11.616;2022-08-19T11:33:28;22.33;;;14.38;;
18364;SDS011;9309;52.126;11.616;2022-08-19T11:35:56;23.40;;;13.80;;
18364;SDS011;9309;52.126;11.616;2022-08-19T11:38:23;20.20;;;12.80;;
18364;SDS011;9309;52.126;11.616;2022-08-19T11:40:53;19.17;;;13.75;;
18364;SDS011;9309;52.126;11.616;2022-08-19T11:43:22;19.65;;;13.43;;
18364;SDS011;9309;52.126;11.616;2022-08-19T11:45:49;19.98;;;13.85;;
18364;SDS011;9309;52.126;11.616;2022-08-19T11:48:16;18.92;;;13.73;;
18364;SDS011;9309;52.126;11.616;2022-08-19T11:50:47;18.88;;;14.65;;
18364;SDS011;9309;52.126;11.616;2022-08-19T11:53:14;24.27;;;14.05;;
18364;SDS011;9309;52.126;11.616;2022-08-19T11:55:41;25.98;;;14.68;;
18364;SDS011;9309;52.126;11.616;2022-08-19T11:58:09;20.05;;;13.95;;
18364;SDS011;9309;52.126;11.616;2022-08-19T12:00:39;20.58;;;13.18;;
18364;SDS011;9309;52.126;11.616;2022-08-19T12:03:06;18.45;;;13.05;;
18364;SDS011;9309;52.126;11.616;2022-08-19T12:05:34;16.98;;;12.52;;
18364;SDS011;9309;52.126;11.616;2022-08-19T12:08:03;15.77;;;11.82;;
18364;SDS011;9309;52.126;11.616;2022-08-19T12:10:30;20.17;;;12.05;;
18364;SDS011;9309;52.126;11.616;2022-08-19T12:12:57;17.05;;;12.77;;
18364;SDS011;9309;52.126;11.616;2022-08-19T12:15:24;17.42;;;11.77;;
18364;SDS011;9309;52.126;11.616;2022-08-19T12:17:54;18.65;;;12.07;;
18364;SDS011;9309;52.126;11.616;2022-08-19T12:20:22;12.40;;;10.80;;
18364;SDS011;9309;52.126;11.616;2022-08-19T12:22:49;15.00;;;11.90;;
18364;SDS011;9309;52.126;11.616;2022-08-19T12:25:16;14.82;;;11.23;;
18364;SDS011;9309;52.126;11.616;2022-08-19T12:27:44;18.73;;;11.32;;
18364;SDS011;9309;52.126;11.616;2022-08-19T12:30:12;21.27;;;10.98;;
18364;SDS011;9309;52.126;11.616;2022-08-19T12:32:39;15.80;;;9.98;;
18364;SDS011;9309;52.126;11.616;2022-08-19T12:35:08;14.25;;;9.45;;
18364;SDS011;9309;52.126;11.616;2022-08-19T12:37:36;14.30;;;9.85;;
18364;SDS011;9309;52.126;11.616;2022-08-19T12:40:03;12.93;;;10.52;;
18364;SDS011;9309;52.126;11.616;2022-08-19T12:42:31;12.90;;;10.23;;
18364;SDS011;9309;52.126;11.616;2022-08-19T12:44:57;14.93;;;9.68;;
18364;SDS011;9309;52.126;11.616;2022-08-19T12:47:24;10.70;;;9.60;;
18364;SDS011;9309;52.126;11.616;2022-08-19T12:49:52;13.57;;;10.05;;
18364;SDS011;9309;52.126;11.616;2022-08-19T12:52:20;13.80;;;9.52;;
18364;SDS011;9309;52.126;11.616;2022-08-19T12:54:48;13.13;;;9.30;;
18364;SDS011;9309;52.126;11.616;2022-08-19T12:57:16;13.40;;;9.35;;
18364;SDS011;9309;52.126;11.616;2022-08-19T12:59:43;14.75;;;8.82;;
18364;SDS011;9309;52.126;11.616;2022-08-19T13:02:09;12.05;;;9.10;;
18364;SDS011;9309;52.126;11.616;2022-08-19T13:04:36;10.85;;;8.93;;
18364;SDS011;9309;52.126;11.616;2022-08-19T13:07:06;11.45;;;9.20;;
18364;SDS011;9309;52.126;11.616;2022-08-19T13:09:34;12.20;;;9.88;;
18364;SDS011;9309;52.126;11.616;2022-08-19T13:12:01;12.70;;;9.32;;
18364;SDS011;9309;52.126;11.616;2022-08-19T13:14:32;11.45;;;9.20;;
18364;SDS011;9309;52.126;11.616;2022-08-19T13:16:59;14.88;;;10.07;;
18364;SDS011;9309;52.126;11.616;2022-08-19T13:19:27;13.65;;;9.15;;
18364;SDS011;9309;52.126;11.616;2022-08-19T13:21:55;11.73;;;8.93;;
18364;SDS011;9309;52.126;11.616;2022-08-19T13:24:22;13.55;;;9.48;;
18364;SDS011;9309;52.126;11.616;2022-08-19T13:26:51;13.65;;;10.00;;
18364;SDS011;9309;52.126;11.616;2022-08-19T13:29:17;14.63;;;9.50;;
18364;SDS011;9309;52.126;11.616;2022-08-19T13:32:02;11.20;;;9.50;;
18364;SDS011;9309;52.126;11.616;2022-08-19T13:34:46;11.60;;;9.95;;
18364;SDS011;9309;52.126;11.616;2022-08-19T13:37:13;11.00;;;9.82;;
18364;SDS011;9309;52.126;11.616;2022-08-19T13:39:40;15.10;;;10.15;;
18364;SDS011;9309;52.126;11.616;2022-08-19T13:42:08;17.13;;;9.73;;
18364;SDS011;9309;52.126;11.616;2022-08-19T13:44:35;11.82;;;9.10;;
18364;SDS011;9309;52.126;11.616;2022-08-19T13:47:02;17.83;;;9.93;;
18364;SDS011;9309;52.126;11.616;2022-08-19T13:49:31;11.32;;;9.55;;
18364;SDS011;9309;52.126;11.616;2022-08-19T13:51:59;10.65;;;8.48;;
18364;SDS011;9309;52.126;11.616;2022-08-19T13:54:26;13.15;;;8.93;;
18364;SDS011;9309;52.126;11.616;2022-08-19T13:56:53;14.18;;;8.75;;
18364;SDS011;9309;52.126;11.616;2022-08-19T13:59:21;12.75;;;9.32;;
18364;SDS011;9309;52.126;11.616;2022-08-19T14:01:47;11.85;;;9.00;;
18364;SDS011;9309;52.126;11.616;2022-08-19T14:04:15;12.02;;;8.43;;
18364;SDS011;9309;52.126;11.616;2022-08-19T14:06:41;10.57;;;8.82;;
18364;SDS011;9309;52.126;11.616;2022-08-19T14:09:08;12.70;;;8.23;;
18364;SDS011;9309;52.126;11.616;2022-08-19T14:11:35;11.27;;;8.43;;
18364;SDS011;9309;52.126;11.616;2022-08-19T14:14:02;9.85;;;7.97;;
18364;SDS011;9309;52.126;11.616;2022-08-19T14:16:30;14.85;;;8.20;;
18364;SDS011;9309;52.126;11.616;2022-08-19T14:18:57;12.38;;;8.15;;
18364;SDS011;9309;52.126;11.616;2022-08-19T14:21:24;9.50;;;8.43;;
18364;SDS011;9309;52.126;11.616;2022-08-19T14:23:51;11.07;;;9.13;;
18364;SDS011;9309;52.126;11.616;2022-08-19T14:26:19;10.38;;;8.55;;
18364;SDS011;9309;52.126;11.616;2022-08-19T14:28:47;10.75;;;8.43;;
18364;SDS011;9309;52.126;11.616;2022-08-19T14:31:15;13.80;;;9.27;;